Stonewall, Colorado
Current Conditions -  °F | °C
As of 10:53 AM on Sunday 25 Jan 2015 (Local Time) from KRTN Reporting Station
Clear Clear  
Wind Chill: 36°   Ceiling: Unl
Heat Index: 40°   Visibility: 10mi
Dew Point: 22°   Wind: 6mph
Humidity: 49%   Direction: 190°S
Pressure: 30.27"   Gusts: NA
Location:  37.1566°N, 104.956°W
Report Text: KRTN 251753Z AUTO 19005KT 10SM CLR 04/M06 A3027 RMK AO2 SLP235 T00441056 10050 21050 53009
Loading
Personal Weather Stations






























Interactive Weather Map New forecast layout! Learn more

10-Day Weather Forecast

Advertisements
Track Severe Weather on mobile